Bedford, Indiana
Current Conditions -  °F | °C
As of 8:53 AM on Sunday 25 Jan 2015 (Local Time) from KBMG Reporting Station
Broken Clouds Broken Clouds  
Wind Chill: 33°   Ceiling: 11000
Heat Index: 37°   Visibility: 10mi
Dew Point: 31°   Wind: 5mph
Humidity: 79%   Direction: 130°SE
Pressure: 29.66"   Gusts: NA
Location:  38.86°N, 86.49°W
Report Text: KBMG 251353Z 13004KT 10SM BKN110 03/M01 A2966 RMK AO2 SLP047 T00281006 $
Loading
Personal Weather Stations






























Interactive Weather Map New forecast layout! Learn more

10-Day Weather Forecast

Advertisements
Track Severe Weather on mobile